Livingston, MT

3:54 AM MDT on August 30, 2015 (GMT -0600)
Mission | | Change Station
CLOSE
Current Station
Airport
Location: Livingston,
Elevation: 4656 ft
Nearby Weather Stations
Active Advisory: Fire Weather Warning

Elev 4656 ft 45.70 °N, 110.44 °W | Updated 1 hour ago

Clear
Clear
75 °F
Feels Like 75 °F
N
23
Wind Variable Wind from SW
Gusts 31 mph

Today
High -- | Low -- °F
--% Chance of Precip.
Yesterday
High -- | Low -- °F
Precip. -- in
6:40 AM 8:04 PM
Waxing Gibbous, 99% visible
Pressure 29.66 in
Visibility 10.0 miles
Clouds Clear
Dew Point 43 °F
Humidity 32%
Rainfall 0.00 in
Snow Depth Not available.
UV 0 out of 12
Pollen 8.40 out of 12
Air Quality Not available.
Flu Activity Not available.
METAR KLVM 300853Z AUTO 23020G27KT 10SM CLR 24/06 A2984 RMK AO2 PK WND 21038/0754 SLP042 T02390061 53004
Pressure 29.66 in
Visibility 10.0 miles
Clouds Clear
Dew Point 43 °F
Humidity 32%
Rainfall 0.00 in
Snow Depth Not available.
UV 0 out of 12
Pollen 8.40 out of 12
Air Quality Not available.
Flu Activity Not available.
METAR KLVM 300853Z AUTO 23020G27KT 10SM CLR 24/06 A2984 RMK AO2 PK WND 21038/0754 SLP042 T02390061 53004

10-Day Weather Forecast

×

Almanac

Astronomy

Aug. 30, 2015 Rise Set
Actual Time
Civil Twilight
Nautical Twilight
Astronomical Twilight
Moon
Length of Visible Light
Length of Day
Tomorrow will be .
, % of the Moon is Illuminated

Today's Extremes

State Highs State Lows

Community

WunderPhotos

Upload Photos

1,850,919 photos uploaded!

WunderBlogs® & News

Nearby

Air Quality

  Air Quality AQ Index Pollutant
Not available.

Snow Depth

Station Depth Elevation

Earthquake Activity

City Distance Mag. Time & Date
Minimum magnitude displayed is 2.5.

Coastal Water Temperatures

Place Temperature

Stations

Nearby Weather Stations

Station Location Temp. Windchill Dew Point Humidity Wind Precip. Elev Updated Type
                   
Fire Weather Warning
Statement as of 3:21 AM MDT on August 30, 2015

... Red flag warning remains in effect until midnight MDT tonight...

* impacts: low humidities... very warm temperatures... and gusty
winds will create critical fire weather conditions through this
evening. A wind shift with a strong cold front this evening
could cause fires to grow rapidly and erratically.

* Affected area:
   in south central Mt... fire weather zones 123... 124... 125... 126...
   127 and 128.

* Counties affected:
   in central Mt... Golden Valley... Musselshell... Wheatland.
   In south central Mt... Carbon... park... Stillwater... Sweet Grass
                         Yellowstone.
   In southwest Mt... Gallatin.

* Wind: southwest wind gusts of 25 to 40 mph through this
afternoon. Winds will shift to the west/northwest 20 to 30 mph
with gusts to 40 mph this evening.

* Humidity: upper teens to lower 20s.

* Temperatures: in the middle 80s to lower 90s.

Precautionary/preparedness actions...

Obey local fire restrictions and be very careful with any activity
that could spark a fire.




Http://weather.Gov/Billings